createdAt,value
2018-01-14T00:01:49.693Z,55.00
2018-01-14T00:04:17.457Z,55.60
2018-01-14T00:06:45.000Z,55.30
2018-01-14T00:09:12.552Z,55.40
2018-01-14T00:11:40.116Z,55.40
2018-01-14T00:14:07.683Z,55.40
2018-01-14T00:16:36.018Z,55.60
2018-01-14T00:19:03.727Z,55.50
2018-01-14T00:21:31.256Z,55.60
2018-01-14T00:23:58.786Z,55.80
2018-01-14T00:26:27.101Z,56.40
2018-01-14T00:28:54.629Z,56.30
2018-01-14T00:31:22.151Z,56.60
2018-01-14T00:33:49.678Z,56.90
2018-01-14T00:36:18.093Z,57.50
2018-01-14T00:38:45.616Z,57.50
2018-01-14T00:41:13.155Z,57.80
2018-01-14T00:43:40.711Z,58.00
2018-01-14T00:46:08.426Z,58.00
2018-01-14T00:48:36.946Z,58.60
2018-01-14T00:51:04.512Z,58.60
2018-01-14T00:53:32.068Z,58.60
2018-01-14T00:56:00.324Z,58.90
2018-01-14T00:58:27.851Z,59.00
2018-01-14T01:00:55.395Z,59.40
2018-01-14T01:03:22.940Z,59.50
2018-01-14T01:05:50.452Z,59.70
2018-01-14T01:08:17.993Z,59.60
2018-01-14T01:10:45.520Z,59.70
2018-01-14T01:13:13.075Z,59.90
2018-01-14T01:15:40.853Z,60.10
2018-01-14T01:18:08.501Z,60.30
2018-01-14T01:20:36.322Z,60.30
2018-01-14T01:23:03.879Z,60.50
2018-01-14T01:25:31.387Z,60.50
2018-01-14T01:28:00.517Z,60.80
2018-01-14T01:30:28.164Z,60.80
2018-01-14T01:32:55.713Z,60.90
2018-01-14T01:35:23.232Z,60.70
2018-01-14T01:37:50.795Z,60.80
2018-01-14T01:40:18.326Z,61.00
2018-01-14T01:42:46.012Z,61.10
2018-01-14T01:45:13.543Z,61.40
2018-01-14T01:47:41.072Z,61.10
2018-01-14T01:50:08.583Z,61.20
2018-01-14T01:52:36.648Z,61.10
2018-01-14T01:55:04.185Z,61.20
2018-01-14T01:57:31.734Z,61.30
2018-01-14T02:00:00.987Z,61.40
2018-01-14T02:02:28.499Z,61.40
2018-01-14T02:04:56.063Z,61.30
2018-01-14T02:07:23.884Z,61.40
2018-01-14T02:09:51.539Z,61.50
2018-01-14T02:12:19.058Z,61.40
2018-01-14T02:14:46.599Z,61.50
2018-01-14T02:17:14.123Z,61.70
2018-01-14T02:19:42.465Z,61.70
2018-01-14T02:22:10.815Z,61.50
2018-01-14T02:24:38.387Z,61.50
2018-01-14T02:27:06.680Z,61.50
2018-01-14T02:29:34.228Z,61.40
2018-01-14T02:32:01.743Z,61.30
2018-01-14T02:34:30.048Z,61.50
2018-01-14T02:36:57.605Z,61.50
2018-01-14T02:39:25.245Z,61.50
2018-01-14T02:41:52.776Z,61.50
2018-01-14T02:44:20.321Z,61.30
2018-01-14T02:46:48.618Z,61.40
2018-01-14T02:49:16.202Z,61.40
2018-01-14T02:51:43.792Z,61.50
2018-01-14T02:54:11.340Z,61.30
2018-01-14T02:56:38.896Z,61.30
2018-01-14T02:59:06.468Z,61.10
2018-01-14T03:01:34.049Z,61.60
2018-01-14T03:04:02.422Z,60.80
2018-01-14T03:06:29.968Z,60.70
2018-01-14T03:08:57.505Z,60.90
2018-01-14T03:11:25.054Z,61.00
2018-01-14T03:13:52.601Z,61.00
2018-01-14T03:16:20.763Z,61.00
2018-01-14T03:18:48.297Z,61.10
2018-01-14T03:21:16.159Z,61.10
2018-01-14T03:23:43.689Z,61.10
2018-01-14T03:26:11.245Z,61.40
2018-01-14T03:28:38.771Z,61.40
2018-01-14T03:31:06.538Z,61.40
2018-01-14T03:33:34.131Z,61.40
2018-01-14T03:36:01.978Z,61.40
2018-01-14T03:38:29.520Z,61.70
2018-01-14T03:40:57.127Z,61.90
2018-01-14T03:43:25.768Z,61.90
2018-01-14T03:45:53.341Z,61.70
2018-01-14T03:48:20.898Z,62.10
2018-01-14T03:50:48.430Z,62.30
2018-01-14T03:53:15.967Z,62.10
2018-01-14T03:55:43.496Z,62.10
2018-01-14T03:58:11.093Z,62.50
2018-01-14T04:00:38.646Z,62.40
2018-01-14T04:03:06.820Z,62.30
2018-01-14T04:05:35.072Z,62.10
2018-01-14T04:08:03.685Z,62.80
2018-01-14T04:10:31.218Z,62.50
2018-01-14T04:12:58.750Z,62.60
2018-01-14T04:15:26.312Z,62.80
2018-01-14T04:17:53.871Z,62.80
2018-01-14T04:20:21.409Z,62.90
2018-01-14T04:22:48.960Z,62.80
2018-01-14T04:25:16.611Z,62.90
2018-01-14T04:27:44.932Z,62.60
2018-01-14T04:30:13.279Z,63.00
2018-01-14T04:32:40.801Z,62.90
2018-01-14T04:35:08.381Z,63.00
2018-01-14T04:37:36.719Z,63.00
2018-01-14T04:40:04.281Z,62.90
2018-01-14T04:42:32.598Z,63.00
2018-01-14T04:45:00.250Z,62.90
2018-01-14T04:47:27.773Z,62.90
2018-01-14T04:49:55.318Z,63.10
2018-01-14T04:52:22.848Z,63.40
2018-01-14T04:54:50.395Z,63.40
2018-01-14T04:57:18.711Z,63.60
2018-01-14T04:59:46.316Z,64.20
2018-01-14T05:02:14.609Z,63.60
2018-01-14T05:04:42.168Z,63.60
2018-01-14T05:07:09.721Z,63.60
2018-01-14T05:09:37.241Z,63.80
2018-01-14T05:12:04.815Z,63.90
2018-01-14T05:14:32.337Z,63.90
2018-01-14T05:16:59.918Z,63.90
2018-01-14T05:19:27.466Z,63.80
2018-01-14T05:21:55.028Z,63.80
2018-01-14T05:24:22.573Z,63.70
2018-01-14T05:26:50.921Z,63.90
2018-01-14T05:29:18.448Z,63.90
2018-01-14T05:31:46.309Z,63.90
2018-01-14T05:34:13.873Z,64.00
2018-01-14T05:36:42.226Z,64.40
2018-01-14T05:39:09.735Z,64.40
2018-01-14T05:41:37.261Z,64.40
2018-01-14T05:44:06.297Z,64.70
2018-01-14T05:46:34.595Z,64.70
2018-01-14T05:49:02.137Z,64.70
2018-01-14T05:51:29.664Z,64.70
2018-01-14T05:53:57.206Z,64.90
2018-01-14T05:56:24.750Z,65.00
2018-01-14T05:58:52.356Z,64.70
2018-01-14T06:01:19.880Z,64.60
2018-01-14T06:03:47.452Z,64.80
2018-01-14T06:06:14.985Z,64.90
2018-01-14T06:08:42.528Z,65.20
2018-01-14T06:11:10.134Z,65.40
2018-01-14T06:13:37.673Z,65.40
2018-01-14T06:16:07.294Z,65.80
2018-01-14T06:18:34.817Z,65.70
2018-01-14T06:21:02.366Z,65.60
2018-01-14T06:23:29.893Z,65.60
2018-01-14T06:25:57.433Z,65.60
2018-01-14T06:28:25.833Z,66.30
2018-01-14T06:30:53.386Z,65.60
2018-01-14T06:33:20.917Z,65.60
2018-01-14T06:35:48.466Z,65.70
2018-01-14T06:38:16.038Z,66.00
2018-01-14T06:40:43.600Z,66.20
2018-01-14T06:43:11.133Z,66.20
2018-01-14T06:45:38.676Z,66.30
2018-01-14T06:48:07.696Z,66.60
2018-01-14T06:50:35.292Z,66.60
2018-01-14T06:53:02.817Z,66.60
2018-01-14T06:55:30.360Z,66.60
2018-01-14T06:57:57.902Z,66.30
2018-01-14T07:00:31.376Z,66.30
2018-01-14T07:02:58.922Z,66.30
2018-01-14T07:05:26.455Z,66.60
2018-01-14T07:07:54.118Z,66.60
2018-01-14T07:10:21.855Z,66.70
2018-01-14T07:12:49.433Z,66.70
2018-01-14T07:15:16.972Z,66.80
2018-01-14T07:17:44.529Z,66.80
2018-01-14T07:20:12.057Z,67.00
2018-01-14T07:22:39.617Z,67.20
2018-01-14T07:25:08.475Z,66.80
2018-01-14T07:27:36.027Z,66.80
2018-01-14T07:30:03.588Z,66.80
2018-01-14T07:32:31.153Z,66.70
2018-01-14T07:34:59.465Z,66.80
2018-01-14T07:37:26.996Z,66.70
2018-01-14T07:39:54.538Z,66.60
2018-01-14T07:42:22.095Z,66.80
2018-01-14T07:44:49.717Z,66.80
2018-01-14T07:47:17.353Z,66.80
2018-01-14T07:49:44.960Z,66.70
2018-01-14T07:52:12.484Z,66.60
2018-01-14T07:54:40.041Z,66.50
2018-01-14T07:57:08.977Z,67.50
2018-01-14T07:59:36.537Z,67.40
2018-01-14T08:02:04.077Z,66.90
2018-01-14T08:04:31.633Z,66.70
2018-01-14T08:06:59.161Z,66.90
2018-01-14T08:09:26.701Z,66.10
2018-01-14T08:11:54.241Z,65.90
2018-01-14T08:14:21.764Z,66.10
2018-01-14T08:16:50.073Z,65.40
2018-01-14T08:19:17.647Z,65.40
2018-01-14T08:21:45.196Z,65.20
2018-01-14T08:24:12.721Z,65.10
2018-01-14T08:26:40.300Z,65.00
2018-01-14T08:29:09.417Z,64.50
2018-01-14T08:31:36.955Z,64.50
2018-01-14T08:34:04.521Z,64.40
2018-01-14T08:36:32.122Z,64.40
2018-01-14T08:38:59.742Z,64.80
2018-01-14T08:41:27.300Z,65.00
2018-01-14T08:43:55.594Z,64.30
2018-01-14T08:46:23.193Z,64.30
2018-01-14T08:48:50.741Z,63.60
2018-01-14T08:51:18.283Z,63.10
2018-01-14T08:53:45.830Z,62.80
2018-01-14T08:56:13.873Z,62.50
2018-01-14T08:58:41.424Z,62.10
2018-01-14T09:01:10.143Z,61.80
2018-01-14T09:03:37.701Z,61.80
2018-01-14T09:06:05.943Z,61.50
2018-01-14T09:08:33.493Z,61.70
2018-01-14T09:11:01.216Z,61.50
2018-01-14T09:13:29.521Z,61.10
2018-01-14T09:15:57.041Z,61.00
2018-01-14T09:18:24.587Z,60.90
2018-01-14T09:20:52.136Z,60.70
2018-01-14T09:23:19.756Z,60.50
2018-01-14T09:25:48.065Z,60.10
2018-01-14T09:28:15.592Z,60.10
2018-01-14T09:31:09.996Z,60.40
2018-01-14T09:33:37.541Z,59.80
2018-01-14T09:36:05.082Z,59.40
2018-01-14T09:38:32.603Z,59.20
2018-01-14T09:41:00.162Z,59.10
2018-01-14T09:43:27.693Z,58.80
2018-01-14T09:45:55.224Z,58.40
2018-01-14T09:48:22.785Z,57.90
2018-01-14T09:50:50.437Z,57.80
2018-01-14T09:53:18.025Z,57.50
2018-01-14T09:55:45.636Z,57.00
2018-01-14T09:58:13.220Z,56.60
2018-01-14T10:00:41.524Z,56.50
2018-01-14T10:03:09.044Z,56.50
2018-01-14T10:05:36.589Z,56.10
2018-01-14T10:08:04.217Z,55.60
2018-01-14T10:10:32.529Z,56.20
2018-01-14T10:13:00.070Z,55.90
2018-01-14T10:15:27.619Z,55.50
2018-01-14T10:17:55.185Z,55.30
2018-01-14T10:20:22.817Z,54.50
2018-01-14T10:22:50.349Z,54.90
2018-01-14T10:25:17.926Z,54.60
2018-01-14T10:27:46.248Z,54.50
2018-01-14T10:30:13.773Z,56.50
2018-01-14T10:32:41.346Z,55.80
2018-01-14T10:35:08.887Z,54.60
2018-01-14T10:37:36.424Z,55.30
2018-01-14T10:40:03.952Z,55.20
2018-01-14T10:42:31.493Z,54.60
2018-01-14T10:44:59.784Z,53.90
2018-01-14T10:47:27.320Z,53.90
2018-01-14T10:49:54.836Z,54.20
2018-01-14T10:52:22.404Z,54.00
2018-01-14T10:54:49.928Z,53.60
2018-01-14T10:57:17.490Z,53.50
2018-01-14T10:59:45.016Z,53.50
2018-01-14T11:02:12.967Z,53.30
2018-01-14T11:04:41.277Z,53.90
2018-01-14T11:07:08.813Z,53.90
2018-01-14T11:09:36.336Z,53.50
2018-01-14T11:12:03.869Z,53.10
2018-01-14T11:14:31.385Z,53.30
2018-01-14T11:16:58.932Z,53.00
2018-01-14T11:19:27.241Z,53.50
2018-01-14T11:21:54.756Z,53.00
2018-01-14T11:24:23.090Z,53.40
2018-01-14T11:26:50.637Z,53.30
2018-01-14T11:29:30.126Z,53.50
2018-01-14T11:31:57.650Z,53.30
2018-01-14T11:34:25.252Z,52.70
2018-01-14T11:36:52.780Z,52.20
2018-01-14T11:39:20.359Z,52.10
2018-01-14T11:41:48.052Z,52.50
2018-01-14T11:44:17.566Z,52.60
2018-01-14T11:46:45.088Z,53.20
2018-01-14T11:49:12.624Z,53.10
2018-01-14T11:51:40.156Z,52.70
2018-01-14T11:54:07.707Z,52.90
2018-01-14T11:56:35.241Z,52.90
2018-01-14T11:59:02.793Z,52.60
2018-01-14T12:01:30.329Z,52.90
2018-01-14T12:03:58.069Z,53.10
2018-01-14T12:06:25.605Z,52.70
2018-01-14T12:08:53.916Z,52.90
2018-01-14T12:11:21.433Z,52.90
2018-01-14T12:13:49.129Z,53.00
2018-01-14T12:16:16.722Z,52.50
2018-01-14T12:18:44.397Z,53.00
2018-01-14T12:21:11.952Z,52.90
2018-01-14T12:23:39.497Z,52.80
2018-01-14T12:26:08.013Z,52.80
2018-01-14T12:28:35.545Z,52.40
2018-01-14T12:31:03.850Z,52.70
2018-01-14T12:36:27.969Z,52.70
2018-01-14T12:38:55.542Z,52.80
2018-01-14T12:41:23.088Z,52.70
2018-01-14T12:43:50.625Z,53.00
2018-01-14T12:46:18.197Z,52.90
2018-01-14T12:48:45.732Z,53.10
2018-01-14T12:51:13.273Z,53.10
2018-01-14T12:53:40.836Z,52.80
2018-01-14T12:56:08.385Z,52.60
2018-01-14T12:58:35.905Z,52.80
2018-01-14T13:01:03.438Z,52.90
2018-01-14T13:03:31.025Z,53.40
2018-01-14T13:05:58.934Z,53.40
2018-01-14T13:08:26.476Z,53.40
2018-01-14T13:10:54.018Z,53.40
2018-01-14T13:13:23.741Z,52.90
2018-01-14T13:15:51.270Z,52.10
2018-01-14T13:18:18.850Z,52.70
2018-01-14T13:20:47.037Z,52.70
2018-01-14T13:23:16.269Z,52.50
2018-01-14T13:25:43.802Z,52.40
2018-01-14T13:28:11.361Z,52.70
2018-01-14T13:30:38.900Z,52.60
2018-01-14T13:33:06.493Z,53.10
2018-01-14T13:35:34.049Z,53.50
2018-01-14T13:38:02.337Z,53.70
2018-01-14T13:40:29.882Z,53.60
2018-01-14T13:42:57.405Z,53.40
2018-01-14T13:45:25.889Z,53.80
2018-01-14T13:47:53.472Z,53.70
2018-01-14T13:50:21.021Z,53.80
2018-01-14T13:52:48.693Z,54.30
2018-01-14T13:55:17.627Z,54.20
2018-01-14T13:57:45.217Z,54.10
2018-01-14T14:00:12.767Z,54.60
2018-01-14T14:02:41.080Z,54.90
2018-01-14T14:05:08.625Z,55.40
2018-01-14T14:07:36.152Z,55.20
2018-01-14T14:10:03.693Z,55.50
2018-01-14T14:12:31.226Z,55.60
2018-01-14T14:14:58.754Z,55.90
2018-01-14T14:17:27.113Z,56.40
2018-01-14T14:19:54.638Z,56.40
2018-01-14T14:22:22.764Z,56.50
2018-01-14T14:24:50.400Z,56.80
2018-01-14T14:27:19.178Z,57.10
2018-01-14T14:29:47.245Z,57.10
2018-01-14T14:32:14.805Z,57.20
2018-01-14T14:34:42.341Z,57.40
2018-01-14T14:37:09.888Z,57.60
2018-01-14T14:39:37.419Z,57.80
2018-01-14T14:42:04.963Z,57.90
2018-01-14T14:44:32.484Z,58.00
2018-01-14T14:47:00.050Z,58.20
2018-01-14T14:49:27.584Z,58.40
2018-01-14T14:51:55.108Z,58.70
2018-01-14T14:54:23.516Z,59.30
2018-01-14T14:56:51.049Z,59.30
2018-01-14T14:59:20.337Z,59.40
2018-01-14T15:01:48.828Z,59.50
2018-01-14T15:04:16.563Z,59.50
2018-01-14T15:06:44.102Z,59.90
2018-01-14T15:09:11.656Z,60.10
2018-01-14T15:11:39.233Z,60.00
2018-01-14T15:14:07.548Z,60.90
2018-01-14T15:16:35.083Z,60.80
2018-01-14T15:19:02.625Z,60.80
2018-01-14T15:21:30.247Z,61.10
2018-01-14T15:23:57.789Z,61.40
2018-01-14T15:26:25.319Z,61.40
2018-01-14T15:28:53.645Z,61.70
2018-01-14T15:31:21.202Z,61.70
2018-01-14T15:33:49.621Z,62.20
2018-01-14T15:36:17.232Z,62.30
2018-01-14T15:38:44.935Z,62.70
2018-01-14T15:41:12.572Z,63.00
2018-01-14T15:43:40.114Z,63.30
2018-01-14T15:46:07.664Z,63.30
2018-01-14T15:48:35.248Z,63.20
2018-01-14T15:51:02.792Z,63.20
2018-01-14T15:53:30.317Z,63.40
2018-01-14T15:55:57.865Z,63.30
2018-01-14T15:58:25.384Z,63.20
2018-01-14T16:00:52.920Z,63.40
2018-01-14T16:03:20.583Z,63.40
2018-01-14T16:05:48.208Z,63.40
2018-01-14T16:08:15.753Z,63.50
2018-01-14T16:10:43.324Z,63.50
2018-01-14T16:13:10.876Z,63.50
2018-01-14T16:15:38.428Z,64.40
2018-01-14T16:18:05.993Z,64.00
2018-01-14T16:20:34.325Z,64.10
2018-01-14T16:23:01.893Z,63.90
2018-01-14T16:25:29.454Z,63.60
2018-01-14T16:27:57.769Z,63.20
2018-01-14T16:30:25.301Z,63.20
2018-01-14T16:32:52.876Z,63.20
2018-01-14T16:35:21.377Z,63.10
2018-01-14T16:37:50.496Z,63.10
2018-01-14T16:40:18.443Z,63.10
2018-01-14T16:42:46.957Z,63.10
2018-01-14T16:45:15.257Z,63.20
2018-01-14T16:47:42.786Z,63.10
2018-01-14T16:50:11.106Z,64.30
2018-01-14T16:52:38.693Z,64.30
2018-01-14T16:55:07.006Z,64.30
2018-01-14T16:57:34.568Z,64.30
2018-01-14T17:00:03.073Z,64.60
2018-01-14T17:02:30.611Z,64.40
2018-01-14T17:04:58.928Z,65.00
2018-01-14T17:07:26.561Z,65.00
2018-01-14T17:09:54.104Z,65.30
2018-01-14T17:12:23.157Z,65.60
2018-01-14T17:14:50.745Z,65.60
2018-01-14T17:17:18.265Z,65.60
2018-01-14T17:19:45.805Z,65.90
2018-01-14T17:22:13.333Z,66.10
2018-01-14T17:24:40.868Z,66.00
2018-01-14T17:27:08.455Z,66.30
2018-01-14T17:29:35.998Z,66.50
2018-01-14T17:32:03.529Z,66.70
2018-01-14T17:34:31.084Z,66.60
2018-01-14T17:36:58.637Z,66.70
2018-01-14T17:39:26.185Z,66.80
2018-01-14T17:41:53.738Z,66.80
2018-01-14T17:44:21.442Z,66.90
2018-01-14T17:46:49.351Z,67.20
2018-01-14T17:49:17.872Z,67.20
2018-01-14T17:51:45.815Z,67.20
2018-01-14T17:54:13.343Z,67.40
2018-01-14T17:56:41.686Z,67.50
2018-01-14T17:59:09.303Z,67.50
2018-01-14T18:01:37.836Z,67.80
2018-01-14T18:04:05.361Z,67.70
2018-01-14T18:06:33.677Z,67.80
2018-01-14T18:09:01.200Z,67.80
2018-01-14T18:11:28.740Z,68.00
2018-01-14T18:13:56.275Z,68.10
2018-01-14T18:16:24.765Z,67.80
2018-01-14T18:18:52.297Z,67.80
2018-01-14T18:21:19.899Z,67.90
2018-01-14T18:23:48.350Z,68.70
2018-01-14T18:26:17.235Z,68.00
2018-01-14T18:28:44.787Z,68.20
2018-01-14T18:31:13.100Z,68.40
2018-01-14T18:33:40.749Z,68.30
2018-01-14T18:36:08.279Z,68.60
2018-01-14T18:38:35.828Z,68.60
2018-01-14T18:41:03.364Z,69.20
2018-01-14T18:43:30.904Z,68.90
2018-01-14T18:46:14.219Z,68.30
2018-01-14T18:48:41.781Z,68.00
2018-01-14T18:51:09.310Z,68.30
2018-01-14T18:53:36.881Z,68.20
2018-01-14T18:56:04.420Z,68.20
2018-01-14T18:58:32.109Z,68.60
2018-01-14T19:01:00.449Z,68.60
2018-01-14T19:03:27.965Z,68.50
2018-01-14T19:05:55.493Z,68.60
2018-01-14T19:08:23.063Z,68.40
2018-01-14T19:10:50.596Z,68.90
2018-01-14T19:13:18.455Z,68.50
2018-01-14T19:15:46.225Z,68.60
2018-01-14T19:18:14.557Z,68.60
2018-01-14T19:20:42.164Z,68.60
2018-01-14T19:23:09.674Z,68.70
2018-01-14T19:25:37.302Z,68.70
2018-01-14T19:28:04.843Z,68.70
2018-01-14T19:30:32.386Z,69.40
2018-01-14T19:32:59.924Z,68.90
2018-01-14T19:35:27.484Z,68.90
2018-01-14T19:37:55.164Z,68.80
2018-01-14T19:40:24.224Z,68.70
2018-01-14T19:42:51.797Z,68.60
2018-01-14T19:45:20.258Z,68.80
2018-01-14T19:47:47.918Z,68.80
2018-01-14T19:50:15.500Z,69.20
2018-01-14T19:52:43.034Z,69.40
2018-01-14T19:55:10.565Z,68.80
2018-01-14T19:57:38.116Z,68.60
2018-01-14T20:00:05.652Z,68.90
2018-01-14T20:02:33.200Z,69.00
2018-01-14T20:05:00.736Z,69.00
2018-01-14T20:07:29.057Z,69.30
2018-01-14T20:09:56.585Z,69.40
2018-01-14T20:12:24.148Z,69.20
2018-01-14T20:14:53.185Z,69.10
2018-01-14T20:17:21.014Z,69.10
2018-01-14T20:19:48.576Z,69.30
2018-01-14T20:22:16.138Z,70.10
2018-01-14T20:24:43.705Z,70.30
2018-01-14T20:27:11.248Z,69.70
2018-01-14T20:29:38.777Z,69.10
2018-01-14T20:32:06.321Z,69.00
2018-01-14T20:34:33.864Z,69.10
2018-01-14T20:37:02.385Z,69.00
2018-01-14T20:39:34.585Z,69.00
2018-01-14T20:42:02.439Z,68.90
2018-01-14T20:44:30.797Z,68.90
2018-01-14T20:46:58.320Z,68.70
2018-01-14T20:49:25.877Z,68.60
2018-01-14T20:51:53.406Z,68.20
2018-01-14T20:54:21.090Z,68.20
2018-01-14T20:56:49.459Z,68.10
2018-01-14T20:59:17.017Z,68.00
2018-01-14T21:01:44.545Z,68.00
2018-01-14T21:04:12.101Z,67.60
2018-01-14T21:06:39.624Z,67.30
2018-01-14T21:09:07.156Z,67.90
2018-01-14T21:11:34.728Z,67.80
2018-01-14T21:14:02.259Z,67.70
2018-01-14T21:16:29.892Z,66.90
2018-01-14T21:18:57.429Z,66.50
2018-01-14T21:21:25.135Z,66.20
2018-01-14T21:23:53.465Z,66.90
2018-01-14T21:26:21.045Z,66.10
2018-01-14T21:28:49.415Z,66.30
2018-01-14T21:31:17.736Z,66.20
2018-01-14T21:33:45.282Z,66.20
2018-01-14T21:36:12.854Z,65.90
2018-01-14T21:38:42.114Z,65.90
2018-01-14T21:41:09.865Z,65.90
2018-01-14T21:43:37.565Z,66.00
2018-01-14T21:46:05.122Z,65.60
2018-01-14T21:48:32.784Z,65.70
2018-01-14T21:51:00.331Z,65.70
2018-01-14T21:53:28.860Z,65.40
2018-01-14T21:55:57.173Z,65.40
2018-01-14T21:58:24.705Z,65.40
2018-01-14T22:00:52.333Z,66.00
2018-01-14T22:03:19.895Z,65.50
2018-01-14T22:05:47.646Z,65.30
2018-01-14T22:08:15.194Z,65.20
2018-01-14T22:10:42.747Z,65.30
2018-01-14T22:13:10.294Z,65.20
2018-01-14T22:15:37.824Z,65.10
2018-01-14T22:18:05.436Z,64.80
2018-01-14T22:20:33.722Z,65.30
2018-01-14T22:23:01.257Z,65.30
2018-01-14T22:25:28.805Z,65.50
2018-01-14T22:27:56.354Z,65.30
2018-01-14T22:30:23.916Z,65.00
2018-01-14T22:32:51.469Z,64.90
2018-01-14T22:35:19.079Z,64.90
2018-01-14T22:37:46.664Z,65.10
2018-01-14T22:40:14.209Z,65.30
2018-01-14T22:42:41.736Z,65.90
2018-01-14T22:45:09.357Z,65.00
2018-01-14T22:47:36.880Z,65.00
2018-01-14T22:50:05.200Z,64.80
2018-01-14T22:52:33.680Z,64.80
2018-01-14T22:55:01.255Z,64.70
2018-01-14T22:57:29.544Z,64.30
2018-01-14T22:59:57.108Z,64.30
2018-01-14T23:02:24.638Z,64.20
2018-01-14T23:04:52.176Z,64.30
2018-01-14T23:07:19.724Z,64.20
2018-01-14T23:09:47.408Z,64.10
2018-01-14T23:12:15.824Z,64.50
2018-01-14T23:14:50.412Z,64.30
2018-01-14T23:17:18.029Z,64.30
2018-01-14T23:19:47.161Z,64.30
2018-01-14T23:22:14.705Z,64.20
2018-01-14T23:24:42.248Z,64.30
2018-01-14T23:27:09.818Z,64.20
2018-01-14T23:29:37.352Z,66.20
2018-01-14T23:32:04.872Z,65.40
2018-01-14T23:34:32.439Z,64.40
2018-01-14T23:36:59.998Z,64.40
2018-01-14T23:39:27.527Z,64.40
2018-01-14T23:41:55.068Z,64.70
2018-01-14T23:44:22.701Z,64.40
2018-01-14T23:46:50.313Z,64.20
2018-01-14T23:49:18.388Z,64.10
2018-01-14T23:51:45.974Z,63.50
2018-01-14T23:54:13.500Z,63.50
2018-01-14T23:56:41.078Z,63.50
2018-01-14T23:59:08.660Z,63.70
